Time;durP1;ratioP1;P1;durP2;ratioP2;P2;SDS_P1;SDS_P2;PMS_P1;PMS_P2;Temp;Humidity;BMP_temperature;BMP_pressure;BME280_temperature;BME280_humidity;BME280_pressure;Samples;Min_cycle;Max_cycle;Signal;HPM_P1;HPM_P2
2022/03/25 00:00:28;;;;;;;15.27;11.05;;;;;;;19.84;28.17;102845.34;16130122;19;129602;-48
2022/03/25 00:05:50;;;;;;;14.57;10.63;;;;;;;19.82;28.25;102844.69;16126923;19;129386;-49
2022/03/25 00:11:12;;;;;;;12.15;9.40;;;;;;;19.80;28.23;102844.06;16130503;19;129928;-48
2022/03/25 00:16:33;;;;;;;16.77;10.70;;;;;;;19.78;28.26;102846.19;16134529;19;129260;-48
2022/03/25 00:21:55;;;;;;;13.73;11.00;;;;;;;19.76;27.99;102851.09;16143698;19;129550;-47
2022/03/25 00:27:17;;;;;;;13.98;10.43;;;;;;;19.75;27.82;102853.03;16139983;19;130548;-49
2022/03/25 00:32:40;;;;;;;12.18;9.88;;;;;;;19.73;27.87;102854.28;16141548;19;129447;-47
2022/03/25 00:38:02;;;;;;;14.27;9.75;;;;;;;19.70;28.24;102850.00;16142496;19;129602;-46
2022/03/25 00:43:24;;;;;;;12.95;10.00;;;;;;;19.67;28.38;102848.50;16140867;19;129405;-44
2022/03/25 00:48:46;;;;;;;12.13;9.10;;;;;;;19.65;28.08;102853.41;16144126;19;129654;-51
2022/03/25 00:54:08;;;;;;;11.48;9.15;;;;;;;19.65;28.22;102846.97;16141970;19;130189;-48
2022/03/25 00:59:30;;;;;;;12.63;9.48;;;;;;;19.63;28.41;102840.78;16141095;19;129558;-46
2022/03/25 01:04:52;;;;;;;12.40;9.48;;;;;;;19.61;28.44;102834.59;16138777;19;129330;-46
2022/03/25 01:10:14;;;;;;;12.20;9.57;;;;;;;19.60;28.33;102841.19;16140178;19;129942;-45
2022/03/25 01:15:36;;;;;;;11.88;8.93;;;;;;;19.57;27.99;102841.59;16135945;19;129404;-45
2022/03/25 01:20:58;;;;;;;14.95;9.80;;;;;;;19.54;28.16;102840.09;16141985;19;129013;-49
2022/03/25 01:26:20;;;;;;;11.63;9.63;;;;;;;19.52;28.46;102842.22;16138027;19;130766;-49
2022/03/25 01:31:42;;;;;;;12.82;10.05;;;;;;;19.51;28.23;102835.78;16140385;19;129168;-46
2022/03/25 01:37:04;;;;;;;11.95;9.77;;;;;;;19.50;28.44;102834.13;16140406;19;130775;-48
2022/03/25 01:42:33;;;;;;;14.63;9.65;;;;;;;19.48;28.35;102835.34;16140698;19;130053;-49
2022/03/25 01:47:54;;;;;;;14.63;10.25;;;;;;;19.45;28.43;102831.09;16134844;19;129225;-48
2022/03/25 01:53:22;;;;;;;11.45;9.88;;;;;;;19.45;28.34;102841.31;16141325;19;130079;-47
2022/03/25 01:58:44;;;;;;;13.80;10.00;;;;;;;19.42;28.17;102831.50;16139136;19;129683;-48
2022/03/25 02:04:06;;;;;;;11.88;9.80;;;;;;;19.42;28.15;102830.66;16138010;19;131258;-47
2022/03/25 02:09:28;;;;;;;14.82;10.00;;;;;;;19.40;28.51;102833.59;16137970;19;129548;-48
2022/03/25 02:14:51;;;;;;;14.45;10.27;;;;;;;19.38;28.64;102835.75;16137718;19;130100;-50
2022/03/25 02:20:12;;;;;;;13.32;10.48;;;;;;;19.36;28.18;102833.16;16138685;19;129576;-50
2022/03/25 02:25:35;;;;;;;13.90;10.85;;;;;;;19.36;28.46;102832.31;16134296;19;129579;-48
2022/03/25 02:30:57;;;;;;;15.20;12.13;;;;;;;19.33;28.45;102825.25;16136070;19;129412;-51
2022/03/25 02:36:18;;;;;;;14.20;11.25;;;;;;;19.33;28.61;102821.63;16137133;19;132161;-48
2022/03/25 02:41:41;;;;;;;13.15;11.07;;;;;;;19.30;28.30;102822.03;16135631;19;129455;-51
2022/03/25 02:47:04;;;;;;;15.27;11.95;;;;;;;19.28;28.31;102816.69;16130863;19;130168;-48
2022/03/25 02:52:26;;;;;;;13.57;10.93;;;;;;;19.27;28.20;102822.44;16136908;19;129181;-48
2022/03/25 02:57:47;;;;;;;13.60;11.07;;;;;;;19.25;28.19;102827.34;16136861;19;129361;-48
2022/03/25 03:03:09;;;;;;;15.52;11.50;;;;;;;19.23;28.16;102827.53;16136533;19;129312;-49
2022/03/25 03:08:31;;;;;;;13.57;12.02;;;;;;;19.23;28.51;102833.09;16130086;19;129481;-49
2022/03/25 03:13:53;;;;;;;17.30;12.30;;;;;;;19.21;28.64;102837.97;16133620;19;130326;-45
2022/03/25 03:19:15;;;;;;;14.43;11.35;;;;;;;19.20;28.25;102841.81;16131406;19;129759;-47
2022/03/25 03:24:37;;;;;;;15.93;12.18;;;;;;;19.19;28.21;102837.31;16129936;19;129590;-45
2022/03/25 03:29:59;;;;;;;14.75;10.80;;;;;;;19.18;28.65;102835.59;16132455;19;129152;-50
2022/03/25 03:35:21;;;;;;;18.55;11.63;;;;;;;19.16;28.29;102830.22;16131133;19;129611;-46
2022/03/25 03:40:43;;;;;;;12.77;10.27;;;;;;;19.15;28.37;102831.28;16130001;19;129721;-48
2022/03/25 03:46:05;;;;;;;17.35;11.90;;;;;;;19.14;28.45;102837.06;16127443;19;129286;-49
2022/03/25 03:51:27;;;;;;;15.70;11.57;;;;;;;19.12;28.56;102830.84;16132698;19;129788;-48
2022/03/25 03:56:48;;;;;;;15.15;11.73;;;;;;;19.12;28.28;102837.28;16146777;19;129565;-45
2022/03/25 04:02:10;;;;;;;13.35;11.30;;;;;;;19.10;28.43;102833.84;16146334;19;129490;-49
2022/03/25 04:07:39;;;;;;;16.55;11.00;;;;;;;19.10;28.40;102839.38;16139250;19;131445;-46
2022/03/25 04:13:01;;;;;;;13.32;11.05;;;;;;;19.08;28.32;102842.34;16147675;19;128963;-48
2022/03/25 04:18:23;;;;;;;12.02;9.60;;;;;;;19.08;28.47;102841.50;16144083;19;129341;-48
2022/03/25 04:23:45;;;;;;;11.32;9.90;;;;;;;19.06;28.34;102838.94;16148092;19;130348;-48
2022/03/25 04:29:07;;;;;;;12.13;10.18;;;;;;;19.06;28.35;102836.16;16143433;19;129368;-48
2022/03/25 04:34:29;;;;;;;12.52;9.48;;;;;;;19.05;28.42;102842.78;16146881;19;129427;-46
2022/03/25 04:39:51;;;;;;;11.85;9.63;;;;;;;19.04;28.59;102843.84;16145930;19;130721;-48
2022/03/25 04:45:14;;;;;;;11.57;9.00;;;;;;;19.03;28.72;102839.34;16141821;19;129026;-47
2022/03/25 04:50:35;;;;;;;13.20;8.70;;;;;;;19.02;28.69;102845.94;16144880;19;130263;-48
2022/03/25 04:55:57;;;;;;;10.48;8.52;;;;;;;19.10;28.39;102844.06;16145477;19;129686;-50
2022/03/25 05:01:19;;;;;;;11.80;8.00;;;;;;;19.42;28.62;102841.75;16143938;19;130372;-47
2022/03/25 05:06:41;;;;;;;8.30;7.38;;;;;;;19.98;27.95;102852.66;16140102;19;129108;-48
2022/03/25 05:12:03;;;;;;;8.40;7.30;;;;;;;20.48;27.34;102851.53;16146797;19;129395;-45
2022/03/25 05:17:25;;;;;;;8.85;7.18;;;;;;;20.77;26.98;102859.69;16144086;19;129021;-49
2022/03/25 05:22:49;;;;;;;11.13;7.90;;;;;;;20.84;26.81;102855.84;16145062;19;130730;-47
2022/03/25 05:28:11;;;;;;;8.98;7.65;;;;;;;20.84;26.52;102861.41;16138803;19;130370;-49
2022/03/25 05:33:32;;;;;;;10.10;7.15;;;;;;;20.77;27.03;102859.69;16142062;19;131017;-48
2022/03/25 05:38:55;;;;;;;10.20;7.15;;;;;;;20.67;27.11;102860.09;16142091;19;129452;-45
2022/03/25 05:44:18;;;;;;;10.57;7.40;;;;;;;20.57;27.22;102869.69;16139788;19;129877;-46
2022/03/25 05:49:39;;;;;;;10.55;7.88;;;;;;;20.47;26.78;102871.22;16141321;19;131557;-47
2022/03/25 05:55:04;;;;;;;9.27;7.15;;;;;;;20.36;27.36;102883.78;16140096;19;129568;-51
2022/03/25 06:00:26;;;;;;;8.43;7.10;;;;;;;20.26;27.09;102876.72;16141388;19;129506;-49
2022/03/25 06:05:47;;;;;;;8.80;7.45;;;;;;;20.17;27.54;102883.53;16138072;19;130553;-49
2022/03/25 06:11:09;;;;;;;8.95;7.53;;;;;;;20.08;27.60;102887.56;16139398;19;130077;-46
2022/03/25 06:16:31;;;;;;;10.88;8.00;;;;;;;20.03;27.64;102892.91;16136975;19;132674;-46
2022/03/25 06:21:53;;;;;;;9.70;7.80;;;;;;;20.01;27.46;102900.56;16135361;19;130221;-45
2022/03/25 06:27:15;;;;;;;11.90;8.52;;;;;;;19.98;27.66;102897.13;16133116;19;129389;-46
2022/03/25 06:32:36;;;;;;;11.10;9.18;;;;;;;20.02;27.72;102899.50;16138169;19;129248;-47
2022/03/25 06:37:58;;;;;;;11.80;9.38;;;;;;;20.04;27.70;102902.94;16138548;19;130763;-47
2022/03/25 06:43:20;;;;;;;12.63;10.05;;;;;;;20.07;27.36;102908.06;16135998;19;129674;-45
2022/03/25 06:48:42;;;;;;;18.45;9.73;;;;;;;20.10;27.31;102907.66;16132826;19;129637;-46
2022/03/25 06:54:04;;;;;;;17.17;9.70;;;;;;;20.15;27.66;102899.56;16136464;19;132311;-46
2022/03/25 06:59:26;;;;;;;11.57;9.77;;;;;;;20.20;27.64;102907.28;16136485;19;128860;-49
2022/03/25 07:04:48;;;;;;;12.20;9.52;;;;;;;20.24;27.81;102917.75;16132989;19;131383;-45
2022/03/25 07:10:12;;;;;;;14.98;9.18;;;;;;;20.29;27.60;102919.91;16132683;19;129670;-46
2022/03/25 07:15:34;;;;;;;15.32;9.40;;;;;;;20.32;27.73;102924.19;16136934;19;129730;-50
2022/03/25 07:20:59;;;;;;;14.85;9.43;;;;;;;20.36;28.18;102929.16;16131177;19;129808;-49
2022/03/25 07:26:21;;;;;;;16.63;9.98;;;;;;;20.40;27.66;102921.22;16136199;19;129511;-47
2022/03/25 07:31:43;;;;;;;16.15;10.20;;;;;;;20.45;28.02;102929.78;16147427;19;129584;-49
2022/03/25 07:37:05;;;;;;;12.50;10.15;;;;;;;20.50;27.58;102932.81;16151123;19;130574;-47
2022/03/25 07:42:26;;;;;;;13.93;9.95;;;;;;;20.56;28.07;102943.06;16149075;19;129311;-51
2022/03/25 07:47:49;;;;;;;16.05;9.93;;;;;;;20.63;28.15;102953.38;16149633;19;129802;-45
2022/03/25 07:53:11;;;;;;;12.98;10.43;;;;;;;20.68;27.99;102951.66;16149078;19;129939;-46
2022/03/25 07:58:32;;;;;;;21.80;11.38;;;;;;;20.73;27.70;102951.91;16149907;19;129527;-47
2022/03/25 08:03:55;;;;;;;23.13;11.82;;;;;;;20.84;27.35;102966.28;16148967;19;129341;-46
2022/03/25 08:09:17;;;;;;;18.20;11.98;;;;;;;21.30;27.16;102965.44;16145937;19;129617;-51
2022/03/25 08:14:39;;;;;;;16.63;11.00;;;;;;;24.04;24.07;102969.59;16149450;19;129421;-47
2022/03/25 08:20:01;;;;;;;19.73;11.55;;;;;;;24.99;22.57;102971.94;16149250;19;129449;-46
2022/03/25 08:31:04;;;;;;;17.95;11.48;;;;;;;22.87;24.50;102985.06;16148050;19;129411;-46
2022/03/25 08:36:26;;;;;;;16.30;13.05;;;;;;;22.43;25.31;102976.53;16148828;19;130790;-45
2022/03/25 08:41:48;;;;;;;19.20;14.07;;;;;;;22.08;25.46;102971.31;16148764;19;129663;-49
2022/03/25 08:47:10;;;;;;;24.58;14.88;;;;;;;21.82;25.45;102979.50;16142837;19;129284;-48
2022/03/25 08:52:32;;;;;;;27.95;15.23;;;;;;;21.66;25.78;102986.41;16146214;19;129058;-46
2022/03/25 08:57:54;;;;;;;23.45;15.27;;;;;;;21.52;26.11;102991.16;16146514;19;129498;-48
2022/03/25 09:03:16;;;;;;;22.02;15.68;;;;;;;21.40;25.86;102987.28;16139349;19;129370;-48
2022/03/25 09:08:38;;;;;;;22.90;15.73;;;;;;;21.30;26.17;102998.84;16141259;19;133110;-48
2022/03/25 09:14:00;;;;;;;22.10;15.88;;;;;;;21.21;26.14;103000.13;16144465;19;130665;-47
2022/03/25 09:19:22;;;;;;;29.33;16.45;;;;;;;21.10;26.25;102996.03;16146235;19;129927;-48
2022/03/25 09:24:44;;;;;;;22.98;15.77;;;;;;;21.01;26.37;102997.34;16144093;19;129581;-49
2022/03/25 09:30:07;;;;;;;20.73;15.70;;;;;;;20.94;25.92;103007.56;16139027;19;129268;-47
2022/03/25 09:35:49;;;;;;;21.85;16.02;;;;;;;20.83;26.30;103004.34;16142997;19;129231;-50
2022/03/25 09:41:11;;;;;;;27.35;16.40;;;;;;;20.76;25.72;103000.72;16138459;19;129281;-47
2022/03/25 09:46:33;;;;;;;22.10;16.30;;;;;;;20.69;25.97;103013.69;16138629;19;129309;-47
2022/03/25 09:51:55;;;;;;;21.20;14.98;;;;;;;20.65;26.06;103001.28;16141067;19;129545;-49
2022/03/25 09:57:21;;;;;;;21.65;14.48;;;;;;;20.59;26.13;103003.84;16144407;19;128930;-48
2022/03/25 10:02:43;;;;;;;20.73;14.48;;;;;;;20.56;25.81;103004.25;16142293;19;128949;-50
2022/03/25 10:08:05;;;;;;;23.10;14.40;;;;;;;20.50;25.70;102993.09;16138419;19;129638;-48
2022/03/25 10:13:27;;;;;;;20.38;15.50;;;;;;;20.45;25.90;102996.50;16142385;19;129476;-48
2022/03/25 10:18:53;;;;;;;20.13;15.38;;;;;;;20.40;25.93;103004.63;16134932;19;129139;-47
2022/03/25 10:24:18;;;;;;;23.65;16.27;;;;;;;20.34;25.41;102997.97;16142211;19;130087;-47
2022/03/25 10:29:44;;;;;;;22.43;17.30;;;;;;;20.27;25.27;102992.41;16136122;19;133226;-48
2022/03/25 10:35:09;;;;;;;26.08;17.00;;;;;;;20.21;25.14;102989.59;16139518;19;129210;-46
2022/03/25 10:40:31;;;;;;;22.17;15.63;;;;;;;20.19;25.38;102987.00;16139743;19;129208;-45
2022/03/25 10:45:53;;;;;;;20.83;16.58;;;;;;;20.14;25.24;102986.78;16135193;19;129647;-46
2022/03/25 10:51:16;;;;;;;21.73;16.10;;;;;;;20.09;25.19;102981.84;16137631;19;129398;-47
2022/03/25 10:56:43;;;;;;;26.70;17.60;;;;;;;20.09;25.39;102978.19;16136890;19;132039;-48
2022/03/25 11:02:07;;;;;;;22.25;17.13;;;;;;;20.07;25.70;102985.88;16134834;19;130457;-45
2022/03/25 11:07:29;;;;;;;21.50;16.58;;;;;;;20.05;25.71;102974.97;16135404;19;129686;-50
2022/03/25 11:12:51;;;;;;;23.33;17.13;;;;;;;20.04;25.89;102969.63;16137645;19;129274;-46
2022/03/25 11:18:14;;;;;;;23.63;15.90;;;;;;;20.03;26.31;102965.13;16139508;19;129568;-50
2022/03/25 11:23:46;;;;;;;20.75;15.82;;;;;;;20.01;26.13;102961.69;16137845;19;129728;-46
2022/03/25 11:29:13;;;;;;;22.10;15.60;;;;;;;19.98;26.26;102952.69;16133125;19;129394;-45
2022/03/25 11:34:41;;;;;;;24.02;14.73;;;;;;;19.96;26.35;102949.25;16134743;19;129249;-48
2022/03/25 11:40:16;;;;;;;22.60;14.57;;;;;;;19.97;26.42;102939.00;16135552;19;129067;-46
2022/03/25 11:45:38;;;;;;;21.38;13.30;;;;;;;19.97;26.29;102948.19;16131662;19;129935;-47
2022/03/25 11:51:01;;;;;;;17.35;12.95;;;;;;;19.96;26.22;102943.69;16136798;19;129496;-47
2022/03/25 11:56:23;;;;;;;16.70;12.32;;;;;;;19.97;26.36;102948.19;16130109;19;129179;-47
2022/03/25 12:01:45;;;;;;;19.73;12.75;;;;;;;19.95;26.65;102936.41;16135152;19;130414;-51
2022/03/25 12:07:08;;;;;;;18.08;12.65;;;;;;;19.96;26.47;102931.72;16131795;19;129690;-48
2022/03/25 12:12:54;;;;;;;16.75;11.85;;;;;;;19.93;26.75;102921.91;16139968;19;129529;-49
2022/03/25 12:18:47;;;;;;;16.42;11.68;;;;;;;19.93;26.43;102924.69;16142452;19;129451;-47
2022/03/25 12:24:12;;;;;;;15.50;10.88;;;;;;;19.94;26.89;102925.53;16149981;19;130011;-48
2022/03/25 12:29:38;;;;;;;18.83;10.05;;;;;;;19.94;26.61;102918.03;16143126;19;129771;-45
2022/03/25 12:35:11;;;;;;;16.23;10.30;;;;;;;19.95;26.99;102916.13;16148311;19;129634;-50
2022/03/25 12:40:34;;;;;;;19.60;10.93;;;;;;;19.94;26.69;102906.91;16147443;19;129205;-47
2022/03/25 12:45:57;;;;;;;15.13;11.30;;;;;;;19.91;26.67;102906.47;16145200;19;129531;-48
2022/03/25 12:51:22;;;;;;;15.13;10.10;;;;;;;19.89;27.12;102895.59;16147932;19;128867;-48
2022/03/25 12:56:55;;;;;;;16.35;10.20;;;;;;;19.88;26.90;102896.66;16143826;19;129423;-48
2022/03/25 13:02:45;;;;;;;15.70;11.18;;;;;;;19.87;27.17;102889.38;16146048;19;129397;-48
2022/03/25 13:08:08;;;;;;;14.68;11.05;;;;;;;19.85;26.80;102883.16;16144486;19;129059;-50
2022/03/25 13:13:38;;;;;;;14.70;11.05;;;;;;;19.84;26.80;102884.22;16140505;19;128975;-49
2022/03/25 13:19:00;;;;;;;13.88;10.23;;;;;;;19.83;26.89;102882.50;16145337;19;129089;-47
2022/03/25 13:24:22;;;;;;;16.55;9.75;;;;;;;19.83;26.84;102879.72;16141414;19;128966;-47
2022/03/25 13:29:44;;;;;;;13.05;8.70;;;;;;;19.84;26.66;102875.91;16140497;19;129258;-48
2022/03/25 13:35:08;;;;;;;15.10;8.52;;;;;;;19.82;27.09;102865.00;16141124;19;130196;-50
2022/03/25 13:40:44;;;;;;;12.25;8.43;;;;;;;19.83;27.16;102865.84;16143827;19;129161;-45
2022/03/25 13:46:29;;;;;;;15.90;8.23;;;;;;;19.81;27.09;102868.00;16139110;19;129532;-49
2022/03/25 13:52:05;;;;;;;14.73;8.60;;;;;;;19.80;27.10;102860.72;16142550;19;129214;-45
2022/03/25 13:57:26;;;;;;;11.93;8.67;;;;;;;19.77;27.09;102845.31;16142719;19;129987;-45
2022/03/25 14:02:50;;;;;;;15.68;8.35;;;;;;;19.77;27.24;102848.09;16143282;19;129442;-45
2022/03/25 14:08:13;;;;;;;13.68;8.95;;;;;;;19.75;27.10;102841.91;16139094;19;130902;-47
2022/03/25 14:14:00;;;;;;;13.63;8.80;;;;;;;19.73;27.20;102838.47;16138120;19;131582;-53
2022/03/25 14:19:23;;;;;;;12.85;9.07;;;;;;;19.72;27.04;102825.66;16143216;19;129127;-45
2022/03/25 14:24:45;;;;;;;14.90;7.68;;;;;;;19.72;27.17;102830.34;16142144;19;129473;-48
2022/03/25 14:30:07;;;;;;;11.68;8.40;;;;;;;19.69;26.78;102824.13;16138004;19;129680;-49
2022/03/25 14:35:29;;;;;;;14.50;8.57;;;;;;;19.68;26.85;102808.56;16141069;19;129033;-46
2022/03/25 14:40:51;;;;;;;11.60;8.18;;;;;;;19.68;26.78;102814.13;16140338;19;129101;-47
2022/03/25 14:46:13;;;;;;;12.90;8.82;;;;;;;19.66;26.88;102801.47;16134794;19;129871;-48
2022/03/25 14:51:35;;;;;;;12.52;8.60;;;;;;;19.64;27.08;102790.59;16133009;19;129799;-48
2022/03/25 14:57:00;;;;;;;12.80;9.50;;;;;;;19.63;27.08;102794.44;16140105;19;129243;-47
2022/03/25 15:02:22;;;;;;;15.57;9.45;;;;;;;19.62;26.94;102791.88;16139678;19;129447;-46
2022/03/25 15:07:44;;;;;;;18.98;9.63;;;;;;;19.62;26.82;102792.72;16137129;19;130263;-50
2022/03/25 15:13:05;;;;;;;17.00;9.90;;;;;;;19.60;27.21;102792.06;16132309;19;129218;-46
2022/03/25 15:18:27;;;;;;;15.45;10.70;;;;;;;19.58;27.05;102785.03;16139030;19;129961;-45
2022/03/25 15:23:49;;;;;;;19.58;11.27;;;;;;;19.57;27.00;102788.84;16138093;19;130415;-46
2022/03/25 15:29:11;;;;;;;17.27;10.90;;;;;;;19.57;26.96;102786.91;16134571;19;129825;-50
2022/03/25 15:34:35;;;;;;;21.17;11.18;;;;;;;19.57;27.14;102788.84;16136799;19;130250;-46
2022/03/25 15:40:17;;;;;;;14.30;10.30;;;;;;;19.57;26.91;102795.25;16137439;19;129105;-49
2022/03/25 15:45:39;;;;;;;20.30;10.93;;;;;;;19.57;27.00;102794.41;16131979;19;129234;-45
2022/03/25 15:51:02;;;;;;;15.00;10.75;;;;;;;19.61;27.40;102795.72;16139583;19;129448;-44
2022/03/25 15:56:24;;;;;;;14.73;10.73;;;;;;;19.61;27.32;102782.69;16146969;19;131380;-47
2022/03/25 16:01:46;;;;;;;18.92;11.15;;;;;;;19.62;27.03;102776.06;16147509;19;130077;-44
2022/03/25 16:07:08;;;;;;;13.68;10.02;;;;;;;19.61;27.39;102774.34;16150861;19;129453;-49
2022/03/25 16:12:30;;;;;;;15.95;12.38;;;;;;;19.59;27.08;102782.03;16151831;19;129459;-46
2022/03/25 16:17:52;;;;;;;18.70;12.38;;;;;;;19.57;27.51;102775.81;16145327;19;130511;-45
2022/03/25 16:23:14;;;;;;;20.25;12.90;;;;;;;19.54;27.04;102779.03;16146786;19;129030;-45
2022/03/25 16:28:35;;;;;;;19.38;13.68;;;;;;;19.52;27.41;102782.00;16145524;19;129450;-48
2022/03/25 16:33:57;;;;;;;19.17;14.38;;;;;;;19.50;27.13;102777.72;16149093;19;129115;-46
2022/03/25 16:39:19;;;;;;;22.45;15.63;;;;;;;19.49;27.38;102781.56;16147956;19;129310;-46
2022/03/25 16:44:41;;;;;;;28.67;14.77;;;;;;;19.47;27.27;102779.00;16145905;19;130906;-45
2022/03/25 16:50:08;;;;;;;21.27;15.48;;;;;;;19.48;27.48;102788.16;16143176;19;130004;-50
2022/03/25 16:55:30;;;;;;;25.80;16.95;;;;;;;19.47;27.35;102789.22;16148693;19;129318;-49
2022/03/25 17:00:51;;;;;;;26.83;16.33;;;;;;;19.45;27.90;102786.69;16144385;19;128956;-47
2022/03/25 17:06:18;;;;;;;27.80;16.08;;;;;;;19.44;27.86;102787.72;16147929;19;130124;-45
2022/03/25 17:11:40;;;;;;;21.25;16.55;;;;;;;19.51;27.63;102793.31;16141662;19;129384;-46
2022/03/25 17:17:02;;;;;;;24.23;15.18;;;;;;;19.72;27.43;102800.66;16146002;19;129185;-49
2022/03/25 17:22:24;;;;;;;19.88;14.20;;;;;;;19.92;27.07;102797.97;16144530;19;129910;-45
2022/03/25 17:27:46;;;;;;;29.90;13.88;;;;;;;20.10;27.12;102793.72;16138114;19;129424;-46
2022/03/25 17:33:07;;;;;;;20.65;12.88;;;;;;;20.28;26.77;102796.78;16140690;19;129684;-49
2022/03/25 17:38:30;;;;;;;19.48;12.65;;;;;;;20.37;26.84;102797.41;16145007;19;129164;-47
2022/03/25 17:43:51;;;;;;;20.60;11.90;;;;;;;20.41;27.23;102806.19;16140965;19;130219;-49
2022/03/25 17:49:13;;;;;;;21.80;11.35;;;;;;;20.39;27.32;102799.97;16143095;19;132395;-43
2022/03/25 17:54:35;;;;;;;18.85;10.93;;;;;;;20.35;26.91;102807.91;16145062;19;129006;-44
2022/03/25 17:59:57;;;;;;;27.80;10.18;;;;;;;20.30;27.58;102810.44;16149949;19;129430;-49
2022/03/25 18:05:19;;;;;;;20.88;10.55;;;;;;;20.23;27.61;102818.78;16146759;19;129000;-46
2022/03/25 18:10:41;;;;;;;20.50;9.48;;;;;;;20.19;27.95;102819.41;16139359;19;130305;-46
2022/03/25 18:16:03;;;;;;;14.02;8.60;;;;;;;20.12;28.22;102825.78;16141546;19;130270;-44
2022/03/25 18:21:25;;;;;;;15.35;9.10;;;;;;;20.07;28.31;102835.81;16141260;19;130120;-46
2022/03/25 18:26:47;;;;;;;14.18;8.20;;;;;;;20.02;28.44;102842.00;16178180;19;129592;-51
2022/03/25 18:32:09;;;;;;;13.48;8.63;;;;;;;19.97;28.16;102844.56;16215502;19;128295;-51
2022/03/25 18:37:32;;;;;;;15.38;8.30;;;;;;;19.92;28.32;102842.41;16222522;19;129636;-52
2022/03/25 18:42:54;;;;;;;18.27;8.50;;;;;;;19.89;28.72;102845.59;16223279;19;128167;-49
2022/03/25 18:48:16;;;;;;;14.88;8.38;;;;;;;19.86;28.57;102848.78;16221002;19;129427;-52
2022/03/25 18:53:39;;;;;;;18.63;9.30;;;;;;;19.82;28.99;102853.03;16221754;19;128140;-54
2022/03/25 18:59:00;;;;;;;21.02;8.30;;;;;;;19.85;29.08;102852.63;16213744;19;129568;-51
2022/03/25 19:04:25;;;;;;;20.17;8.20;;;;;;;20.10;29.46;102855.75;16185764;19;128791;-42
2022/03/25 19:09:47;;;;;;;13.90;6.90;;;;;;;20.45;30.12;102857.50;16185909;19;129732;-40
2022/03/25 19:15:09;;;;;;;14.15;7.13;;;;;;;20.79;30.33;102863.13;16192060;19;129792;-39
2022/03/25 19:20:31;;;;;;;18.70;7.38;;;;;;;21.10;30.42;102862.47;16185541;19;129012;-42
2022/03/25 19:25:53;;;;;;;21.58;7.60;;;;;;;21.31;30.60;102871.63;16191995;19;128380;-41
2022/03/25 19:31:15;;;;;;;15.63;7.68;;;;;;;21.44;31.12;102877.16;16200650;19;128773;-42
2022/03/25 19:36:37;;;;;;;18.05;6.43;;;;;;;21.50;31.22;102872.69;16204494;19;129227;-41
2022/03/25 19:42:04;;;;;;;13.23;6.25;;;;;;;21.49;31.86;102885.75;16197911;19;129315;-40
2022/03/25 19:47:26;;;;;;;10.40;6.57;;;;;;;21.44;32.22;102888.28;16190273;19;128982;-41
2022/03/25 19:52:49;;;;;;;13.07;7.07;;;;;;;21.37;32.21;102890.25;16159064;19;129077;-41
2022/03/25 19:58:10;;;;;;;13.30;6.88;;;;;;;21.25;33.02;102883.63;16132768;19;130267;-40
2022/03/25 20:03:33;;;;;;;14.18;6.95;;;;;;;21.16;33.47;102891.34;16133245;19;132727;-42
2022/03/25 20:08:55;;;;;;;15.52;7.40;;;;;;;21.03;33.74;102892.22;16125605;19;129248;-39
2022/03/25 20:14:16;;;;;;;15.43;7.55;;;;;;;20.97;34.38;102893.06;16133680;19;129015;-41
2022/03/25 20:19:39;;;;;;;15.05;7.10;;;;;;;21.06;35.45;102892.66;16132176;19;129206;-41
2022/03/25 20:25:01;;;;;;;14.63;6.35;;;;;;;21.33;35.31;102908.47;16135544;19;129839;-40
2022/03/25 20:30:24;;;;;;;13.25;6.25;;;;;;;21.62;35.22;102909.06;16127528;19;129146;-46
2022/03/25 20:35:46;;;;;;;14.38;6.25;;;;;;;21.92;35.58;102911.31;16143302;19;130361;-41
2022/03/25 20:41:09;;;;;;;17.05;6.90;;;;;;;22.17;35.16;102907.78;16144828;19;128923;-41
2022/03/25 20:46:31;;;;;;;11.38;5.85;;;;;;;22.33;35.40;102912.88;16144316;19;130050;-42
2022/03/25 20:51:53;;;;;;;10.18;5.90;;;;;;;22.40;35.43;102929.56;16144575;19;130796;-44
2022/03/25 20:57:15;;;;;;;10.05;6.07;;;;;;;22.33;35.22;102929.59;16146575;19;129088;-44
2022/03/25 21:02:37;;;;;;;19.13;7.10;;;;;;;22.23;35.10;102926.44;16147097;19;129865;-45
2022/03/25 21:07:59;;;;;;;13.93;6.95;;;;;;;22.09;35.56;102929.25;16146176;19;129931;-44
2022/03/25 21:13:41;;;;;;;16.75;7.55;;;;;;;21.95;35.04;102931.25;16144242;19;129499;-45
2022/03/25 21:19:03;;;;;;;23.77;8.48;;;;;;;21.80;34.82;102931.50;16142297;19;129231;-42
2022/03/25 21:24:27;;;;;;;15.68;8.68;;;;;;;21.69;35.06;102934.97;16143252;19;130413;-43
2022/03/25 21:29:48;;;;;;;20.80;8.70;;;;;;;21.65;35.43;102939.28;16141108;19;129390;-43
2022/03/25 21:35:10;;;;;;;15.60;8.00;;;;;;;21.71;35.34;102946.75;16140324;19;129802;-44
2022/03/25 21:40:35;;;;;;;14.65;7.88;;;;;;;21.75;35.74;102948.03;16141925;19;129445;-44
2022/03/25 21:45:57;;;;;;;15.60;7.97;;;;;;;21.72;35.79;102945.69;16130418;19;129749;-47
2022/03/25 21:51:18;;;;;;;22.05;7.55;;;;;;;21.63;35.40;102949.78;16135757;19;130096;-43
2022/03/25 21:56:40;;;;;;;13.57;7.38;;;;;;;21.52;35.62;102946.59;16142230;19;129485;-44
2022/03/25 22:02:05;;;;;;;14.48;7.85;;;;;;;21.41;35.74;102944.44;16140205;19;130619;-44
2022/03/25 22:07:27;;;;;;;15.43;8.23;;;;;;;21.31;36.02;102946.78;16141167;19;129589;-43
2022/03/25 22:12:49;;;;;;;15.48;7.95;;;;;;;21.21;36.25;102950.03;16137722;19;129433;-44
2022/03/25 22:18:12;;;;;;;11.27;7.07;;;;;;;21.10;36.22;102962.66;16139090;19;128928;-41
2022/03/25 22:23:34;;;;;;;14.75;8.05;;;;;;;21.02;36.04;102957.31;16141390;19;129063;-44
2022/03/25 22:28:56;;;;;;;16.35;8.35;;;;;;;20.90;36.07;102957.94;16139770;19;129398;-42
2022/03/25 22:34:18;;;;;;;13.57;8.48;;;;;;;20.81;35.90;102961.97;16139606;19;129380;-45
2022/03/25 22:39:41;;;;;;;16.05;9.15;;;;;;;20.71;35.56;102972.63;16140855;19;129665;-45
2022/03/25 22:45:04;;;;;;;13.98;8.63;;;;;;;20.61;35.70;102967.50;16131766;19;130574;-46
2022/03/25 22:50:29;;;;;;;18.15;8.63;;;;;;;20.52;35.83;102977.94;16136580;19;129688;-42
2022/03/25 22:55:50;;;;;;;14.23;9.23;;;;;;;20.44;35.74;102978.97;16135194;19;129522;-46
2022/03/25 23:01:16;;;;;;;15.30;9.85;;;;;;;20.38;35.94;102973.41;16137657;19;130068;-43
2022/03/25 23:06:39;;;;;;;14.20;8.75;;;;;;;20.31;35.88;102970.59;16138293;19;130119;-46
2022/03/25 23:12:02;;;;;;;11.00;8.95;;;;;;;20.25;36.02;102975.06;16132545;19;129792;-44
2022/03/25 23:17:23;;;;;;;15.15;9.38;;;;;;;20.20;35.61;102965.63;16132733;19;129955;-43
2022/03/25 23:22:45;;;;;;;14.85;9.88;;;;;;;20.16;35.46;102967.09;16136773;19;130446;-43
2022/03/25 23:28:08;;;;;;;13.15;9.48;;;;;;;20.12;35.34;102980.56;16134173;19;130155;-44
2022/03/25 23:33:30;;;;;;;12.65;9.07;;;;;;;20.07;35.29;102983.09;16130504;19;129833;-44
2022/03/25 23:38:52;;;;;;;10.35;8.30;;;;;;;20.03;35.43;102987.38;16135675;19;129460;-44
2022/03/25 23:44:14;;;;;;;12.93;9.05;;;;;;;19.99;35.22;102992.44;16132397;19;131956;-43
2022/03/25 23:49:36;;;;;;;14.30;9.40;;;;;;;19.94;35.06;102994.97;16134551;19;129185;-42
2022/03/25 23:54:59;;;;;;;13.65;9.15;;;;;;;19.89;35.52;102998.38;16133013;19;130478;-43
